sensor_id;sensor_type;location;lat;lon;timestamp;P1;durP1;ratioP1;P2;durP2;ratioP2
32214;SDS011;18708;53.124;23.190;2024-02-14T00:02:17;21.60;;;13.40;;
32214;SDS011;18708;53.124;23.190;2024-02-14T00:04:43;16.52;;;10.18;;
32214;SDS011;18708;53.124;23.190;2024-02-14T00:07:08;17.40;;;9.93;;
32214;SDS011;18708;53.124;23.190;2024-02-14T00:09:34;19.30;;;9.82;;
32214;SDS011;18708;53.124;23.190;2024-02-14T00:12:00;20.00;;;9.73;;
32214;SDS011;18708;53.124;23.190;2024-02-14T00:14:26;21.70;;;10.90;;
32214;SDS011;18708;53.124;23.190;2024-02-14T00:16:52;22.23;;;10.15;;
32214;SDS011;18708;53.124;23.190;2024-02-14T00:19:17;18.00;;;10.40;;
32214;SDS011;18708;53.124;23.190;2024-02-14T00:21:43;22.13;;;11.43;;
32214;SDS011;18708;53.124;23.190;2024-02-14T00:24:10;21.30;;;10.88;;
32214;SDS011;18708;53.124;23.190;2024-02-14T00:26:37;19.48;;;9.32;;
32214;SDS011;18708;53.124;23.190;2024-02-14T00:29:04;16.92;;;8.90;;
32214;SDS011;18708;53.124;23.190;2024-02-14T00:31:30;16.63;;;8.18;;
32214;SDS011;18708;53.124;23.190;2024-02-14T00:33:55;15.25;;;7.85;;
32214;SDS011;18708;53.124;23.190;2024-02-14T00:36:21;15.13;;;7.40;;
32214;SDS011;18708;53.124;23.190;2024-02-14T00:38:47;13.13;;;6.95;;
32214;SDS011;18708;53.124;23.190;2024-02-14T00:41:12;13.02;;;6.88;;
32214;SDS011;18708;53.124;23.190;2024-02-14T00:43:38;13.38;;;7.13;;
32214;SDS011;18708;53.124;23.190;2024-02-14T00:46:04;14.43;;;7.43;;
32214;SDS011;18708;53.124;23.190;2024-02-14T00:48:30;14.73;;;7.38;;
32214;SDS011;18708;53.124;23.190;2024-02-14T00:50:57;11.73;;;6.78;;
32214;SDS011;18708;53.124;23.190;2024-02-14T00:53:24;11.73;;;7.35;;
32214;SDS011;18708;53.124;23.190;2024-02-14T00:55:50;14.32;;;6.97;;
32214;SDS011;18708;53.124;23.190;2024-02-14T00:58:16;15.73;;;7.85;;
32214;SDS011;18708;53.124;23.190;2024-02-14T01:00:42;12.88;;;6.97;;
32214;SDS011;18708;53.124;23.190;2024-02-14T01:03:08;10.75;;;6.97;;
32214;SDS011;18708;53.124;23.190;2024-02-14T01:05:37;12.00;;;7.25;;
32214;SDS011;18708;53.124;23.190;2024-02-14T01:08:03;10.90;;;7.20;;
32214;SDS011;18708;53.124;23.190;2024-02-14T01:10:29;17.73;;;7.75;;
32214;SDS011;18708;53.124;23.190;2024-02-14T01:12:55;16.73;;;8.18;;
32214;SDS011;18708;53.124;23.190;2024-02-14T01:15:21;10.68;;;7.50;;
32214;SDS011;18708;53.124;23.190;2024-02-14T01:17:47;14.85;;;7.47;;
32214;SDS011;18708;53.124;23.190;2024-02-14T01:20:13;13.32;;;7.38;;
32214;SDS011;18708;53.124;23.190;2024-02-14T01:22:38;12.38;;;7.38;;
32214;SDS011;18708;53.124;23.190;2024-02-14T01:25:05;11.68;;;7.75;;
32214;SDS011;18708;53.124;23.190;2024-02-14T01:27:31;13.30;;;7.57;;
32214;SDS011;18708;53.124;23.190;2024-02-14T01:29:57;12.80;;;7.10;;
32214;SDS011;18708;53.124;23.190;2024-02-14T01:32:23;11.25;;;7.28;;
32214;SDS011;18708;53.124;23.190;2024-02-14T01:34:48;11.63;;;7.55;;
32214;SDS011;18708;53.124;23.190;2024-02-14T01:37:14;12.40;;;6.78;;
32214;SDS011;18708;53.124;23.190;2024-02-14T01:39:40;15.85;;;6.88;;
32214;SDS011;18708;53.124;23.190;2024-02-14T01:42:05;16.00;;;7.72;;
32214;SDS011;18708;53.124;23.190;2024-02-14T01:44:32;11.18;;;7.15;;
32214;SDS011;18708;53.124;23.190;2024-02-14T01:46:58;13.45;;;7.50;;
32214;SDS011;18708;53.124;23.190;2024-02-14T01:49:25;12.52;;;7.45;;
32214;SDS011;18708;53.124;23.190;2024-02-14T01:51:53;12.88;;;7.10;;
32214;SDS011;18708;53.124;23.190;2024-02-14T01:54:20;14.48;;;6.80;;
32214;SDS011;18708;53.124;23.190;2024-02-14T01:56:46;10.13;;;6.43;;
32214;SDS011;18708;53.124;23.190;2024-02-14T01:59:13;9.45;;;7.18;;
32214;SDS011;18708;53.124;23.190;2024-02-14T02:01:40;10.13;;;6.43;;
32214;SDS011;18708;53.124;23.190;2024-02-14T02:04:07;10.60;;;7.20;;
32214;SDS011;18708;53.124;23.190;2024-02-14T02:06:35;12.70;;;7.25;;
32214;SDS011;18708;53.124;23.190;2024-02-14T02:09:02;11.55;;;7.22;;
32214;SDS011;18708;53.124;23.190;2024-02-14T02:11:28;12.63;;;7.45;;
32214;SDS011;18708;53.124;23.190;2024-02-14T02:13:55;12.45;;;6.95;;
32214;SDS011;18708;53.124;23.190;2024-02-14T02:16:21;14.30;;;7.35;;
32214;SDS011;18708;53.124;23.190;2024-02-14T02:18:47;11.77;;;6.53;;
32214;SDS011;18708;53.124;23.190;2024-02-14T02:21:13;11.82;;;6.75;;
32214;SDS011;18708;53.124;23.190;2024-02-14T02:23:39;9.48;;;6.78;;
32214;SDS011;18708;53.124;23.190;2024-02-14T02:26:10;15.73;;;7.82;;
32214;SDS011;18708;53.124;23.190;2024-02-14T02:28:38;12.73;;;7.75;;
32214;SDS011;18708;53.124;23.190;2024-02-14T02:31:04;11.77;;;7.43;;
32214;SDS011;18708;53.124;23.190;2024-02-14T02:33:30;14.25;;;7.88;;
32214;SDS011;18708;53.124;23.190;2024-02-14T02:35:56;11.18;;;7.15;;
32214;SDS011;18708;53.124;23.190;2024-02-14T02:38:21;13.20;;;7.57;;
32214;SDS011;18708;53.124;23.190;2024-02-14T02:40:47;11.90;;;7.30;;
32214;SDS011;18708;53.124;23.190;2024-02-14T02:43:13;14.13;;;7.07;;
32214;SDS011;18708;53.124;23.190;2024-02-14T02:45:39;13.60;;;7.05;;
32214;SDS011;18708;53.124;23.190;2024-02-14T02:48:06;12.45;;;7.93;;
32214;SDS011;18708;53.124;23.190;2024-02-14T02:50:32;10.90;;;6.93;;
32214;SDS011;18708;53.124;23.190;2024-02-14T02:52:57;11.20;;;7.40;;
32214;SDS011;18708;53.124;23.190;2024-02-14T02:55:26;15.70;;;7.40;;
32214;SDS011;18708;53.124;23.190;2024-02-14T02:57:52;12.15;;;7.10;;
32214;SDS011;18708;53.124;23.190;2024-02-14T03:00:18;14.48;;;7.43;;
32214;SDS011;18708;53.124;23.190;2024-02-14T03:02:46;12.60;;;7.53;;
32214;SDS011;18708;53.124;23.190;2024-02-14T03:05:12;14.30;;;7.60;;
32214;SDS011;18708;53.124;23.190;2024-02-14T03:07:45;13.52;;;7.35;;
32214;SDS011;18708;53.124;23.190;2024-02-14T03:10:15;15.23;;;7.55;;
32214;SDS011;18708;53.124;23.190;2024-02-14T03:12:44;13.13;;;7.03;;
32214;SDS011;18708;53.124;23.190;2024-02-14T03:15:12;13.48;;;6.88;;
32214;SDS011;18708;53.124;23.190;2024-02-14T03:17:38;10.98;;;6.75;;
32214;SDS011;18708;53.124;23.190;2024-02-14T03:20:04;10.38;;;7.38;;
32214;SDS011;18708;53.124;23.190;2024-02-14T03:22:42;14.85;;;6.78;;
32214;SDS011;18708;53.124;23.190;2024-02-14T03:25:12;11.70;;;6.93;;
32214;SDS011;18708;53.124;23.190;2024-02-14T03:27:41;13.70;;;7.05;;
32214;SDS011;18708;53.124;23.190;2024-02-14T03:30:07;12.52;;;7.43;;
32214;SDS011;18708;53.124;23.190;2024-02-14T03:32:33;10.95;;;6.80;;
32214;SDS011;18708;53.124;23.190;2024-02-14T03:35:01;12.65;;;6.30;;
32214;SDS011;18708;53.124;23.190;2024-02-14T03:37:27;15.43;;;6.80;;
32214;SDS011;18708;53.124;23.190;2024-02-14T03:39:52;12.38;;;6.30;;
32214;SDS011;18708;53.124;23.190;2024-02-14T03:42:18;12.32;;;6.68;;
32214;SDS011;18708;53.124;23.190;2024-02-14T03:44:44;11.70;;;7.03;;
32214;SDS011;18708;53.124;23.190;2024-02-14T03:47:11;13.23;;;6.82;;
32214;SDS011;18708;53.124;23.190;2024-02-14T03:49:38;11.90;;;7.10;;
32214;SDS011;18708;53.124;23.190;2024-02-14T03:52:06;13.35;;;8.07;;
32214;SDS011;18708;53.124;23.190;2024-02-14T03:54:35;16.00;;;8.95;;
32214;SDS011;18708;53.124;23.190;2024-02-14T03:57:01;16.80;;;9.13;;
32214;SDS011;18708;53.124;23.190;2024-02-14T03:59:30;17.30;;;9.48;;
32214;SDS011;18708;53.124;23.190;2024-02-14T04:01:56;18.50;;;10.60;;
32214;SDS011;18708;53.124;23.190;2024-02-14T04:04:23;18.10;;;10.27;;
32214;SDS011;18708;53.124;23.190;2024-02-14T04:06:51;19.33;;;10.48;;
32214;SDS011;18708;53.124;23.190;2024-02-14T04:09:17;19.58;;;9.90;;
32214;SDS011;18708;53.124;23.190;2024-02-14T04:11:43;15.68;;;9.05;;
32214;SDS011;18708;53.124;23.190;2024-02-14T04:14:08;15.85;;;8.45;;
32214;SDS011;18708;53.124;23.190;2024-02-14T04:16:34;20.52;;;9.15;;
32214;SDS011;18708;53.124;23.190;2024-02-14T04:19:01;23.70;;;10.15;;
32214;SDS011;18708;53.124;23.190;2024-02-14T04:21:27;20.10;;;11.27;;
32214;SDS011;18708;53.124;23.190;2024-02-14T04:23:53;21.27;;;13.27;;
32214;SDS011;18708;53.124;23.190;2024-02-14T04:26:19;20.10;;;12.65;;
32214;SDS011;18708;53.124;23.190;2024-02-14T04:28:49;20.92;;;10.77;;
32214;SDS011;18708;53.124;23.190;2024-02-14T04:31:14;18.08;;;10.45;;
32214;SDS011;18708;53.124;23.190;2024-02-14T04:33:41;15.10;;;9.40;;
32214;SDS011;18708;53.124;23.190;2024-02-14T04:36:06;18.98;;;10.35;;
32214;SDS011;18708;53.124;23.190;2024-02-14T04:38:32;17.70;;;10.68;;
32214;SDS011;18708;53.124;23.190;2024-02-14T04:40:58;19.23;;;12.27;;
32214;SDS011;18708;53.124;23.190;2024-02-14T04:43:25;19.50;;;11.52;;
32214;SDS011;18708;53.124;23.190;2024-02-14T04:45:51;14.88;;;10.10;;
32214;SDS011;18708;53.124;23.190;2024-02-14T04:48:18;25.98;;;14.10;;
32214;SDS011;18708;53.124;23.190;2024-02-14T04:50:44;26.33;;;14.40;;
32214;SDS011;18708;53.124;23.190;2024-02-14T04:53:10;26.15;;;13.73;;
32214;SDS011;18708;53.124;23.190;2024-02-14T04:55:35;32.45;;;16.08;;
32214;SDS011;18708;53.124;23.190;2024-02-14T04:58:01;30.05;;;16.20;;
32214;SDS011;18708;53.124;23.190;2024-02-14T05:00:27;41.80;;;19.15;;
32214;SDS011;18708;53.124;23.190;2024-02-14T05:02:55;29.65;;;14.57;;
32214;SDS011;18708;53.124;23.190;2024-02-14T05:05:22;21.70;;;12.65;;
32214;SDS011;18708;53.124;23.190;2024-02-14T05:07:48;34.85;;;16.17;;
32214;SDS011;18708;53.124;23.190;2024-02-14T05:10:13;26.77;;;14.13;;
32214;SDS011;18708;53.124;23.190;2024-02-14T05:12:39;27.90;;;14.27;;
32214;SDS011;18708;53.124;23.190;2024-02-14T05:15:05;30.88;;;15.55;;
32214;SDS011;18708;53.124;23.190;2024-02-14T05:17:31;33.92;;;17.45;;
32214;SDS011;18708;53.124;23.190;2024-02-14T05:19:57;33.47;;;16.60;;
32214;SDS011;18708;53.124;23.190;2024-02-14T05:22:23;27.25;;;15.65;;
32214;SDS011;18708;53.124;23.190;2024-02-14T05:24:48;34.30;;;16.35;;
32214;SDS011;18708;53.124;23.190;2024-02-14T05:27:17;29.35;;;17.00;;
32214;SDS011;18708;53.124;23.190;2024-02-14T05:29:42;36.75;;;18.65;;
32214;SDS011;18708;53.124;23.190;2024-02-14T05:32:08;35.65;;;17.95;;
32214;SDS011;18708;53.124;23.190;2024-02-14T05:34:36;28.05;;;17.30;;
32214;SDS011;18708;53.124;23.190;2024-02-14T05:37:04;32.20;;;18.30;;
32214;SDS011;18708;53.124;23.190;2024-02-14T05:39:30;25.38;;;14.60;;
32214;SDS011;18708;53.124;23.190;2024-02-14T05:41:56;30.38;;;16.17;;
32214;SDS011;18708;53.124;23.190;2024-02-14T05:44:22;36.25;;;19.27;;
32214;SDS011;18708;53.124;23.190;2024-02-14T05:46:47;33.22;;;17.55;;
32214;SDS011;18708;53.124;23.190;2024-02-14T05:49:13;29.48;;;18.77;;
32214;SDS011;18708;53.124;23.190;2024-02-14T05:51:39;35.30;;;20.80;;
32214;SDS011;18708;53.124;23.190;2024-02-14T05:54:06;33.90;;;19.83;;
32214;SDS011;18708;53.124;23.190;2024-02-14T05:56:31;30.80;;;18.60;;
32214;SDS011;18708;53.124;23.190;2024-02-14T05:58:57;27.40;;;16.48;;
32214;SDS011;18708;53.124;23.190;2024-02-14T06:01:22;27.85;;;17.35;;
32214;SDS011;18708;53.124;23.190;2024-02-14T06:03:48;32.63;;;19.27;;
32214;SDS011;18708;53.124;23.190;2024-02-14T06:06:14;32.95;;;19.23;;
32214;SDS011;18708;53.124;23.190;2024-02-14T06:08:40;33.00;;;18.95;;
32214;SDS011;18708;53.124;23.190;2024-02-14T06:11:05;35.72;;;21.30;;
32214;SDS011;18708;53.124;23.190;2024-02-14T06:13:31;41.03;;;24.27;;
32214;SDS011;18708;53.124;23.190;2024-02-14T06:15:57;30.83;;;20.45;;
32214;SDS011;18708;53.124;23.190;2024-02-14T06:18:22;32.13;;;18.10;;
32214;SDS011;18708;53.124;23.190;2024-02-14T06:20:48;26.05;;;16.55;;
32214;SDS011;18708;53.124;23.190;2024-02-14T06:23:14;38.53;;;22.27;;
32214;SDS011;18708;53.124;23.190;2024-02-14T06:25:40;42.40;;;24.00;;
32214;SDS011;18708;53.124;23.190;2024-02-14T06:28:06;46.72;;;23.80;;
32214;SDS011;18708;53.124;23.190;2024-02-14T06:30:31;38.03;;;21.70;;
32214;SDS011;18708;53.124;23.190;2024-02-14T06:32:57;47.15;;;22.67;;
32214;SDS011;18708;53.124;23.190;2024-02-14T06:35:25;33.08;;;19.73;;
32214;SDS011;18708;53.124;23.190;2024-02-14T06:37:51;34.83;;;20.05;;
32214;SDS011;18708;53.124;23.190;2024-02-14T06:40:17;34.88;;;19.83;;
32214;SDS011;18708;53.124;23.190;2024-02-14T06:42:42;34.38;;;21.58;;
32214;SDS011;18708;53.124;23.190;2024-02-14T06:45:08;37.75;;;19.83;;
32214;SDS011;18708;53.124;23.190;2024-02-14T06:47:34;35.15;;;20.25;;
32214;SDS011;18708;53.124;23.190;2024-02-14T06:50:00;32.05;;;19.08;;
32214;SDS011;18708;53.124;23.190;2024-02-14T06:52:26;31.90;;;18.05;;
32214;SDS011;18708;53.124;23.190;2024-02-14T06:54:51;31.38;;;18.50;;
32214;SDS011;18708;53.124;23.190;2024-02-14T06:57:17;30.50;;;18.75;;
32214;SDS011;18708;53.124;23.190;2024-02-14T06:59:43;34.97;;;19.63;;
32214;SDS011;18708;53.124;23.190;2024-02-14T07:02:08;33.15;;;20.55;;
32214;SDS011;18708;53.124;23.190;2024-02-14T07:04:34;35.75;;;21.70;;
32214;SDS011;18708;53.124;23.190;2024-02-14T07:06:59;45.13;;;24.13;;
32214;SDS011;18708;53.124;23.190;2024-02-14T07:09:25;35.75;;;21.95;;
32214;SDS011;18708;53.124;23.190;2024-02-14T07:11:51;35.20;;;20.42;;
32214;SDS011;18708;53.124;23.190;2024-02-14T07:14:18;30.92;;;19.33;;
32214;SDS011;18708;53.124;23.190;2024-02-14T07:16:44;36.75;;;20.50;;
32214;SDS011;18708;53.124;23.190;2024-02-14T07:19:10;31.05;;;17.63;;
32214;SDS011;18708;53.124;23.190;2024-02-14T07:21:36;32.53;;;18.65;;
32214;SDS011;18708;53.124;23.190;2024-02-14T07:24:03;34.13;;;21.38;;
32214;SDS011;18708;53.124;23.190;2024-02-14T07:26:30;31.50;;;20.08;;
32214;SDS011;18708;53.124;23.190;2024-02-14T07:28:56;32.05;;;20.60;;
32214;SDS011;18708;53.124;23.190;2024-02-14T07:31:21;35.40;;;21.70;;
32214;SDS011;18708;53.124;23.190;2024-02-14T07:33:48;40.53;;;25.48;;
32214;SDS011;18708;53.124;23.190;2024-02-14T07:36:14;39.58;;;24.25;;
32214;SDS011;18708;53.124;23.190;2024-02-14T07:38:42;43.03;;;22.88;;
32214;SDS011;18708;53.124;23.190;2024-02-14T07:41:10;32.25;;;21.10;;
32214;SDS011;18708;53.124;23.190;2024-02-14T07:43:36;35.72;;;20.85;;
32214;SDS011;18708;53.124;23.190;2024-02-14T07:46:01;34.42;;;19.63;;
32214;SDS011;18708;53.124;23.190;2024-02-14T07:48:27;37.13;;;22.40;;
32214;SDS011;18708;53.124;23.190;2024-02-14T07:50:53;31.55;;;18.42;;
32214;SDS011;18708;53.124;23.190;2024-02-14T07:53:18;30.85;;;18.23;;
32214;SDS011;18708;53.124;23.190;2024-02-14T07:55:46;45.00;;;28.10;;
32214;SDS011;18708;53.124;23.190;2024-02-14T07:58:12;89.13;;;56.35;;
32214;SDS011;18708;53.124;23.190;2024-02-14T08:00:37;64.95;;;40.13;;
32214;SDS011;18708;53.124;23.190;2024-02-14T08:03:03;37.88;;;27.45;;
32214;SDS011;18708;53.124;23.190;2024-02-14T08:05:31;24.83;;;14.85;;
32214;SDS011;18708;53.124;23.190;2024-02-14T08:07:56;25.58;;;15.77;;
32214;SDS011;18708;53.124;23.190;2024-02-14T08:10:22;26.67;;;20.25;;
32214;SDS011;18708;53.124;23.190;2024-02-14T08:12:48;20.38;;;13.65;;
32214;SDS011;18708;53.124;23.190;2024-02-14T08:15:13;24.77;;;17.23;;
32214;SDS011;18708;53.124;23.190;2024-02-14T08:17:39;18.95;;;11.57;;
32214;SDS011;18708;53.124;23.190;2024-02-14T08:20:05;15.88;;;10.02;;
32214;SDS011;18708;53.124;23.190;2024-02-14T08:22:31;16.38;;;9.85;;
32214;SDS011;18708;53.124;23.190;2024-02-14T08:24:57;16.77;;;10.35;;
32214;SDS011;18708;53.124;23.190;2024-02-14T08:27:23;19.50;;;9.32;;
32214;SDS011;18708;53.124;23.190;2024-02-14T08:29:50;16.45;;;9.98;;
32214;SDS011;18708;53.124;23.190;2024-02-14T08:32:16;13.90;;;9.27;;
32214;SDS011;18708;53.124;23.190;2024-02-14T08:34:41;17.60;;;10.63;;
32214;SDS011;18708;53.124;23.190;2024-02-14T08:37:07;16.35;;;8.68;;
32214;SDS011;18708;53.124;23.190;2024-02-14T08:39:33;28.65;;;13.60;;
32214;SDS011;18708;53.124;23.190;2024-02-14T08:41:59;17.90;;;10.27;;
32214;SDS011;18708;53.124;23.190;2024-02-14T08:44:28;20.63;;;9.18;;
32214;SDS011;18708;53.124;23.190;2024-02-14T08:46:53;17.65;;;8.48;;
32214;SDS011;18708;53.124;23.190;2024-02-14T08:49:19;19.98;;;10.82;;
32214;SDS011;18708;53.124;23.190;2024-02-14T08:51:45;14.13;;;8.82;;
32214;SDS011;18708;53.124;23.190;2024-02-14T08:54:12;15.55;;;6.93;;
32214;SDS011;18708;53.124;23.190;2024-02-14T08:56:41;15.10;;;8.85;;
32214;SDS011;18708;53.124;23.190;2024-02-14T08:59:07;13.30;;;7.22;;
32214;SDS011;18708;53.124;23.190;2024-02-14T09:01:32;13.82;;;6.32;;
32214;SDS011;18708;53.124;23.190;2024-02-14T09:03:58;12.25;;;6.47;;
32214;SDS011;18708;53.124;23.190;2024-02-14T09:06:24;12.32;;;6.90;;
32214;SDS011;18708;53.124;23.190;2024-02-14T09:08:51;13.77;;;7.75;;
32214;SDS011;18708;53.124;23.190;2024-02-14T09:11:18;13.45;;;6.82;;
32214;SDS011;18708;53.124;23.190;2024-02-14T09:13:44;13.00;;;6.63;;
32214;SDS011;18708;53.124;23.190;2024-02-14T09:16:12;11.20;;;6.70;;
32214;SDS011;18708;53.124;23.190;2024-02-14T09:18:40;10.52;;;6.13;;
32214;SDS011;18708;53.124;23.190;2024-02-14T09:21:06;11.68;;;5.90;;
32214;SDS011;18708;53.124;23.190;2024-02-14T09:23:32;13.90;;;5.93;;
32214;SDS011;18708;53.124;23.190;2024-02-14T09:25:59;8.75;;;5.40;;
32214;SDS011;18708;53.124;23.190;2024-02-14T09:28:26;15.57;;;7.03;;
32214;SDS011;18708;53.124;23.190;2024-02-14T09:30:51;10.63;;;5.68;;
32214;SDS011;18708;53.124;23.190;2024-02-14T09:33:17;11.00;;;6.00;;
32214;SDS011;18708;53.124;23.190;2024-02-14T09:35:43;11.68;;;5.57;;
32214;SDS011;18708;53.124;23.190;2024-02-14T09:38:13;12.43;;;5.82;;
32214;SDS011;18708;53.124;23.190;2024-02-14T09:40:41;15.20;;;5.90;;
32214;SDS011;18708;53.124;23.190;2024-02-14T09:45:42;10.57;;;5.18;;
32214;SDS011;18708;53.124;23.190;2024-02-14T09:48:09;14.18;;;6.35;;
32214;SDS011;18708;53.124;23.190;2024-02-14T09:50:37;11.07;;;5.13;;
32214;SDS011;18708;53.124;23.190;2024-02-14T09:53:04;10.63;;;5.28;;
32214;SDS011;18708;53.124;23.190;2024-02-14T09:55:32;8.90;;;5.15;;
32214;SDS011;18708;53.124;23.190;2024-02-14T09:57:58;12.18;;;5.22;;
32214;SDS011;18708;53.124;23.190;2024-02-14T10:00:29;9.90;;;5.90;;
32214;SDS011;18708;53.124;23.190;2024-02-14T10:02:56;11.77;;;5.40;;
32214;SDS011;18708;53.124;23.190;2024-02-14T10:05:22;14.52;;;5.72;;
32214;SDS011;18708;53.124;23.190;2024-02-14T10:07:48;10.65;;;5.05;;
32214;SDS011;18708;53.124;23.190;2024-02-14T10:10:14;12.18;;;5.30;;
32214;SDS011;18708;53.124;23.190;2024-02-14T10:12:39;11.13;;;5.32;;
32214;SDS011;18708;53.124;23.190;2024-02-14T10:15:07;12.43;;;6.32;;
32214;SDS011;18708;53.124;23.190;2024-02-14T10:17:33;17.02;;;8.60;;
32214;SDS011;18708;53.124;23.190;2024-02-14T10:20:00;12.13;;;6.90;;
32214;SDS011;18708;53.124;23.190;2024-02-14T10:22:36;12.23;;;5.35;;
32214;SDS011;18708;53.124;23.190;2024-02-14T10:25:03;6.93;;;4.43;;
32214;SDS011;18708;53.124;23.190;2024-02-14T10:27:31;9.23;;;3.85;;
32214;SDS011;18708;53.124;23.190;2024-02-14T10:29:57;6.00;;;3.28;;
32214;SDS011;18708;53.124;23.190;2024-02-14T10:32:24;7.75;;;3.55;;
32214;SDS011;18708;53.124;23.190;2024-02-14T10:34:50;5.68;;;3.85;;
32214;SDS011;18708;53.124;23.190;2024-02-14T10:37:15;13.80;;;3.97;;
32214;SDS011;18708;53.124;23.190;2024-02-14T10:39:44;8.60;;;3.95;;
32214;SDS011;18708;53.124;23.190;2024-02-14T10:42:12;10.38;;;4.13;;
32214;SDS011;18708;53.124;23.190;2024-02-14T10:44:38;7.68;;;3.80;;
32214;SDS011;18708;53.124;23.190;2024-02-14T10:47:05;15.13;;;4.25;;
32214;SDS011;18708;53.124;23.190;2024-02-14T10:49:33;7.13;;;3.72;;
32214;SDS011;18708;53.124;23.190;2024-02-14T10:52:02;9.13;;;4.50;;
32214;SDS011;18708;53.124;23.190;2024-02-14T10:54:32;8.75;;;4.43;;
32214;SDS011;18708;53.124;23.190;2024-02-14T10:57:01;8.88;;;4.10;;
32214;SDS011;18708;53.124;23.190;2024-02-14T10:59:36;8.80;;;4.47;;
32214;SDS011;18708;53.124;23.190;2024-02-14T11:02:07;15.23;;;4.30;;
32214;SDS011;18708;53.124;23.190;2024-02-14T11:04:33;16.40;;;4.18;;
32214;SDS011;18708;53.124;23.190;2024-02-14T11:06:59;14.02;;;4.47;;
32214;SDS011;18708;53.124;23.190;2024-02-14T11:09:35;7.60;;;3.65;;
32214;SDS011;18708;53.124;23.190;2024-02-14T11:12:02;9.23;;;3.47;;
32214;SDS011;18708;53.124;23.190;2024-02-14T11:14:32;14.10;;;4.30;;
32214;SDS011;18708;53.124;23.190;2024-02-14T11:17:00;8.20;;;3.53;;
32214;SDS011;18708;53.124;23.190;2024-02-14T11:19:32;9.98;;;3.70;;
32214;SDS011;18708;53.124;23.190;2024-02-14T11:22:09;6.75;;;3.00;;
32214;SDS011;18708;53.124;23.190;2024-02-14T11:24:38;5.90;;;3.33;;
32214;SDS011;18708;53.124;23.190;2024-02-14T11:27:09;11.15;;;3.80;;
32214;SDS011;18708;53.124;23.190;2024-02-14T11:29:38;7.47;;;3.55;;
32214;SDS011;18708;53.124;23.190;2024-02-14T11:32:05;10.05;;;3.97;;
32214;SDS011;18708;53.124;23.190;2024-02-14T11:34:34;8.35;;;3.40;;
32214;SDS011;18708;53.124;23.190;2024-02-14T11:37:00;9.13;;;4.15;;
32214;SDS011;18708;53.124;23.190;2024-02-14T11:39:26;10.02;;;3.78;;
32214;SDS011;18708;53.124;23.190;2024-02-14T11:41:51;11.55;;;3.90;;
32214;SDS011;18708;53.124;23.190;2024-02-14T11:44:20;12.07;;;4.03;;
32214;SDS011;18708;53.124;23.190;2024-02-14T11:46:47;9.18;;;3.30;;
32214;SDS011;18708;53.124;23.190;2024-02-14T11:49:13;12.15;;;3.58;;
32214;SDS011;18708;53.124;23.190;2024-02-14T11:51:39;12.50;;;4.15;;
32214;SDS011;18708;53.124;23.190;2024-02-14T11:54:06;8.95;;;3.83;;
32214;SDS011;18708;53.124;23.190;2024-02-14T11:56:36;9.77;;;4.32;;
32214;SDS011;18708;53.124;23.190;2024-02-14T11:59:06;9.90;;;3.75;;
32214;SDS011;18708;53.124;23.190;2024-02-14T12:01:34;9.65;;;4.50;;
32214;SDS011;18708;53.124;23.190;2024-02-14T12:04:02;14.80;;;4.28;;
32214;SDS011;18708;53.124;23.190;2024-02-14T12:06:33;7.55;;;4.20;;
32214;SDS011;18708;53.124;23.190;2024-02-14T12:09:00;11.18;;;4.53;;
32214;SDS011;18708;53.124;23.190;2024-02-14T12:11:30;11.63;;;4.72;;
32214;SDS011;18708;53.124;23.190;2024-02-14T12:14:10;8.13;;;4.05;;
32214;SDS011;18708;53.124;23.190;2024-02-14T12:16:36;12.50;;;4.88;;
32214;SDS011;18708;53.124;23.190;2024-02-14T12:19:08;11.73;;;5.10;;
32214;SDS011;18708;53.124;23.190;2024-02-14T12:21:40;8.25;;;4.63;;
32214;SDS011;18708;53.124;23.190;2024-02-14T12:24:11;17.00;;;5.93;;
32214;SDS011;18708;53.124;23.190;2024-02-14T12:26:41;10.32;;;5.68;;
32214;SDS011;18708;53.124;23.190;2024-02-14T12:29:08;7.95;;;5.00;;
32214;SDS011;18708;53.124;23.190;2024-02-14T12:31:38;11.45;;;4.95;;
32214;SDS011;18708;53.124;23.190;2024-02-14T12:34:03;12.75;;;5.00;;
32214;SDS011;18708;53.124;23.190;2024-02-14T12:36:30;8.07;;;4.43;;
32214;SDS011;18708;53.124;23.190;2024-02-14T12:38:58;11.57;;;4.53;;
32214;SDS011;18708;53.124;23.190;2024-02-14T12:41:24;12.27;;;5.95;;
32214;SDS011;18708;53.124;23.190;2024-02-14T12:43:52;22.15;;;9.98;;
32214;SDS011;18708;53.124;23.190;2024-02-14T12:46:18;12.75;;;5.45;;
32214;SDS011;18708;53.124;23.190;2024-02-14T12:48:44;13.73;;;5.05;;
32214;SDS011;18708;53.124;23.190;2024-02-14T12:51:10;12.00;;;5.28;;
32214;SDS011;18708;53.124;23.190;2024-02-14T12:53:36;9.25;;;5.82;;
32214;SDS011;18708;53.124;23.190;2024-02-14T12:56:02;10.93;;;5.28;;
32214;SDS011;18708;53.124;23.190;2024-02-14T12:58:29;9.23;;;5.05;;
32214;SDS011;18708;53.124;23.190;2024-02-14T13:00:56;7.32;;;4.70;;
32214;SDS011;18708;53.124;23.190;2024-02-14T13:03:23;9.55;;;5.00;;
32214;SDS011;18708;53.124;23.190;2024-02-14T13:05:53;8.27;;;4.95;;
32214;SDS011;18708;53.124;23.190;2024-02-14T13:08:19;10.40;;;5.43;;
32214;SDS011;18708;53.124;23.190;2024-02-14T13:10:45;12.15;;;5.15;;
32214;SDS011;18708;53.124;23.190;2024-02-14T13:13:11;12.25;;;4.60;;
32214;SDS011;18708;53.124;23.190;2024-02-14T13:15:39;9.75;;;4.22;;
32214;SDS011;18708;53.124;23.190;2024-02-14T13:18:05;10.27;;;5.22;;
32214;SDS011;18708;53.124;23.190;2024-02-14T13:20:31;12.25;;;5.32;;
32214;SDS011;18708;53.124;23.190;2024-02-14T13:22:57;11.27;;;4.80;;
32214;SDS011;18708;53.124;23.190;2024-02-14T13:25:23;10.73;;;4.95;;
32214;SDS011;18708;53.124;23.190;2024-02-14T13:27:49;12.75;;;5.38;;
32214;SDS011;18708;53.124;23.190;2024-02-14T13:30:14;10.80;;;4.88;;
32214;SDS011;18708;53.124;23.190;2024-02-14T13:32:40;8.35;;;5.07;;
32214;SDS011;18708;53.124;23.190;2024-02-14T13:35:06;8.43;;;4.68;;
32214;SDS011;18708;53.124;23.190;2024-02-14T13:37:32;8.07;;;5.53;;
32214;SDS011;18708;53.124;23.190;2024-02-14T13:39:58;9.88;;;7.78;;
32214;SDS011;18708;53.124;23.190;2024-02-14T13:42:24;12.15;;;4.55;;
32214;SDS011;18708;53.124;23.190;2024-02-14T13:44:49;10.75;;;4.75;;
32214;SDS011;18708;53.124;23.190;2024-02-14T13:47:18;10.38;;;5.93;;
32214;SDS011;18708;53.124;23.190;2024-02-14T13:49:44;10.77;;;5.80;;
32214;SDS011;18708;53.124;23.190;2024-02-14T13:52:10;8.93;;;4.90;;
32214;SDS011;18708;53.124;23.190;2024-02-14T13:54:35;10.70;;;4.55;;
32214;SDS011;18708;53.124;23.190;2024-02-14T13:57:01;12.57;;;5.18;;
32214;SDS011;18708;53.124;23.190;2024-02-14T13:59:27;7.00;;;4.55;;
32214;SDS011;18708;53.124;23.190;2024-02-14T14:01:53;10.18;;;5.28;;
32214;SDS011;18708;53.124;23.190;2024-02-14T14:04:20;10.77;;;5.05;;
32214;SDS011;18708;53.124;23.190;2024-02-14T14:06:46;9.13;;;4.20;;
32214;SDS011;18708;53.124;23.190;2024-02-14T14:09:13;8.95;;;5.05;;
32214;SDS011;18708;53.124;23.190;2024-02-14T14:11:40;11.82;;;5.55;;
32214;SDS011;18708;53.124;23.190;2024-02-14T14:14:06;10.43;;;5.25;;
32214;SDS011;18708;53.124;23.190;2024-02-14T14:16:33;8.63;;;5.20;;
32214;SDS011;18708;53.124;23.190;2024-02-14T14:18:59;11.23;;;5.50;;